Time;durP1;ratioP1;P1;durP2;ratioP2;P2;SDS_P1;SDS_P2;PMS_P1;PMS_P2;Temp;Humidity;BMP_temperature;BMP_pressure;BME280_temperature;BME280_humidity;BME280_pressure;Samples;Min_cycle;Max_cycle;Signal;HPM_P1;HPM_P2
2022/05/23 00:00:51;;;;;;;23.35;14.05;;;;;;;;;;4995530;28;20501;-73
2022/05/23 00:03:17;;;;;;;18.08;13.82;;;;;;;;;;4996269;28;20034;-73
2022/05/23 00:05:44;;;;;;;16.38;14.43;;;;;;;;;;4995742;28;20047;-73
2022/05/23 00:08:10;;;;;;;21.08;13.70;;;;;;;;;;4996236;28;20069;-73
2022/05/23 00:10:36;;;;;;;23.60;14.55;;;;;;;;;;4995949;28;20046;-73
2022/05/23 00:13:02;;;;;;;22.80;15.48;;;;;;;;;;4995801;28;20046;-73
2022/05/23 00:15:28;;;;;;;23.23;14.77;;;;;;;;;;4996325;28;20046;-73
2022/05/23 00:17:55;;;;;;;29.45;14.77;;;;;;;;;;4978944;28;20420;-73
2022/05/23 00:20:22;;;;;;;19.77;14.80;;;;;;;;;;4995270;28;20462;-73
2022/05/23 00:22:49;;;;;;;17.05;14.40;;;;;;;;;;4995562;28;20128;-73
2022/05/23 00:25:15;;;;;;;21.50;14.85;;;;;;;;;;4996236;28;20057;-73
2022/05/23 00:27:42;;;;;;;19.63;13.75;;;;;;;;;;4995703;28;20091;-73
2022/05/23 00:30:13;;;;;;;20.65;14.75;;;;;;;;;;4995366;28;20046;-73
2022/05/23 00:35:24;;;;;;;23.15;14.90;;;;;;;;;;4994935;28;20132;-73
2022/05/23 00:37:52;;;;;;;24.35;15.88;;;;;;;;;;4995566;28;20042;-73
2022/05/23 00:40:24;;;;;;;24.55;15.38;;;;;;;;;;4978072;28;20430;-73
2022/05/23 00:45:35;;;;;;;24.38;15.25;;;;;;;;;;4994985;28;20526;-73
2022/05/23 00:48:01;;;;;;;18.83;15.00;;;;;;;;;;4995138;28;20043;-73
2022/05/23 00:50:28;;;;;;;20.23;13.60;;;;;;;;;;4995238;28;20046;-73
2022/05/23 00:52:57;;;;;;;23.88;14.43;;;;;;;;;;4995215;28;20409;-73
2022/05/23 00:55:29;;;;;;;23.38;14.77;;;;;;;;;;4995907;28;20045;-73
2022/05/23 00:58:01;;;;;;;20.83;14.30;;;;;;;;;;4995649;28;20493;-73
2022/05/23 01:00:28;;;;;;;20.48;14.05;;;;;;;;;;4995294;28;20073;-73
2022/05/23 01:02:57;;;;;;;18.02;13.15;;;;;;;;;;4995585;28;20517;-73
2022/05/23 01:05:24;;;;;;;22.92;14.07;;;;;;;;;;4995142;28;20046;-73
2022/05/23 01:07:50;;;;;;;20.25;14.68;;;;;;;;;;4995184;28;20046;-73
2022/05/23 01:10:17;;;;;;;20.00;14.55;;;;;;;;;;4995216;28;20100;-73
2022/05/23 01:12:43;;;;;;;21.83;14.20;;;;;;;;;;4994865;28;20405;-73
2022/05/23 01:15:20;;;;;;;22.38;15.90;;;;;;;;;;4995734;28;20129;-73
2022/05/23 01:17:46;;;;;;;21.23;15.02;;;;;;;;;;4995753;28;20116;-73
2022/05/23 01:20:12;;;;;;;21.63;14.82;;;;;;;;;;4994893;28;20062;-73
2022/05/23 01:22:47;;;;;;;23.83;16.00;;;;;;;;;;4995400;28;20047;-73
2022/05/23 01:25:19;;;;;;;21.05;15.30;;;;;;;;;;4995665;28;20084;-73
2022/05/23 01:27:49;;;;;;;25.80;15.43;;;;;;;;;;4995588;28;20096;-73
2022/05/23 01:30:16;;;;;;;23.65;16.23;;;;;;;;;;4995231;28;20049;-73
2022/05/23 01:32:42;;;;;;;20.20;15.20;;;;;;;;;;4994870;28;20042;-72
2022/05/23 01:35:10;;;;;;;18.00;14.15;;;;;;;;;;4995862;28;20109;-73
2022/05/23 01:37:36;;;;;;;22.38;14.23;;;;;;;;;;4998492;28;20042;-73
2022/05/23 01:40:03;;;;;;;21.13;14.40;;;;;;;;;;4998419;28;20065;-73
2022/05/23 01:42:29;;;;;;;19.25;14.13;;;;;;;;;;4998383;28;20067;-73
2022/05/23 01:44:55;;;;;;;18.58;13.98;;;;;;;;;;4998807;28;20132;-73
2022/05/23 01:47:22;;;;;;;20.00;13.82;;;;;;;;;;4998595;28;20038;-73
2022/05/23 01:49:48;;;;;;;17.92;14.07;;;;;;;;;;4998351;28;20034;-73
2022/05/23 01:52:15;;;;;;;19.50;14.48;;;;;;;;;;4998133;28;20057;-73
2022/05/23 01:54:41;;;;;;;22.40;14.27;;;;;;;;;;4998803;28;20042;-72
2022/05/23 01:57:08;;;;;;;20.00;14.80;;;;;;;;;;4998451;28;20113;-73
2022/05/23 02:02:36;;;;;;;18.83;10.65;;;;;;;;;;4956971;29;20055;-73
2022/05/23 02:05:03;;;;;;;13.65;8.80;;;;;;;;;;4989610;28;20042;-73
2022/05/23 02:07:29;;;;;;;15.93;8.65;;;;;;;;;;4998507;28;20042;-73
2022/05/23 02:09:56;;;;;;;15.07;7.75;;;;;;;;;;4997621;28;20047;-73
2022/05/23 02:12:22;;;;;;;18.40;7.88;;;;;;;;;;4997483;28;20137;-73
2022/05/23 02:14:49;;;;;;;13.13;7.93;;;;;;;;;;4997885;28;20043;-73
2022/05/23 02:17:16;;;;;;;16.42;7.57;;;;;;;;;;4997800;28;20046;-73
2022/05/23 02:19:42;;;;;;;15.73;7.85;;;;;;;;;;4998135;28;20066;-73
2022/05/23 02:22:08;;;;;;;11.73;7.18;;;;;;;;;;4997364;28;20077;-73
2022/05/23 02:24:35;;;;;;;14.60;7.75;;;;;;;;;;4998198;28;20496;-73
2022/05/23 02:27:01;;;;;;;20.48;7.78;;;;;;;;;;4980366;28;20042;-73
2022/05/23 02:29:27;;;;;;;14.52;7.40;;;;;;;;;;4997728;28;20203;-73
2022/05/23 02:31:53;;;;;;;20.70;7.85;;;;;;;;;;4997189;28;20054;-73
2022/05/23 02:34:20;;;;;;;11.48;7.43;;;;;;;;;;4997407;28;20077;-73
2022/05/23 02:36:46;;;;;;;16.20;7.22;;;;;;;;;;4997432;28;20073;-73
2022/05/23 02:39:13;;;;;;;14.88;8.10;;;;;;;;;;4997079;28;20038;-73
2022/05/23 02:41:39;;;;;;;15.27;7.45;;;;;;;;;;4997309;28;20129;-73
2022/05/23 02:44:06;;;;;;;15.55;6.97;;;;;;;;;;4997019;28;20038;-73
2022/05/23 02:46:32;;;;;;;15.98;8.23;;;;;;;;;;4997061;28;20108;-73
2022/05/23 02:48:59;;;;;;;17.08;7.80;;;;;;;;;;4997187;28;20528;-73
2022/05/23 02:51:25;;;;;;;13.45;7.40;;;;;;;;;;4997205;28;20042;-73
2022/05/23 02:53:52;;;;;;;16.75;7.53;;;;;;;;;;4996757;28;20034;-73
2022/05/23 02:56:18;;;;;;;16.95;8.15;;;;;;;;;;4997055;28;20457;-73
2022/05/23 02:58:44;;;;;;;17.15;7.22;;;;;;;;;;4997019;28;20038;-73
2022/05/23 03:01:11;;;;;;;12.88;7.30;;;;;;;;;;4996959;28;20046;-73
2022/05/23 03:03:39;;;;;;;15.95;7.45;;;;;;;;;;4996902;28;20042;-73
2022/05/23 03:06:05;;;;;;;15.55;7.43;;;;;;;;;;4997114;28;20052;-73
2022/05/23 03:08:32;;;;;;;14.40;7.30;;;;;;;;;;4996474;28;20125;-73
2022/05/23 03:10:59;;;;;;;15.95;7.03;;;;;;;;;;4996842;28;20050;-73
2022/05/23 03:13:25;;;;;;;12.23;6.85;;;;;;;;;;4979226;28;20413;-73
2022/05/23 03:15:51;;;;;;;16.73;7.70;;;;;;;;;;4996764;28;20559;-73
2022/05/23 03:18:18;;;;;;;19.30;7.80;;;;;;;;;;4996617;28;20046;-73
2022/05/23 03:20:44;;;;;;;15.43;7.88;;;;;;;;;;4996401;28;20038;-73
2022/05/23 03:26:58;;;;;;;19.70;7.85;;;;;;;;;;4996014;28;20050;-73
2022/05/23 03:29:00;;;;;;;13.43;7.70;;;;;;;;;;4995756;28;20462;-73
2022/05/23 03:31:27;;;;;;;15.43;7.78;;;;;;;;;;4996423;28;20066;-73
2022/05/23 03:33:53;;;;;;;19.83;8.18;;;;;;;;;;4996046;28;20038;-73
2022/05/23 03:36:20;;;;;;;14.50;7.85;;;;;;;;;;4996416;28;20077;-73
2022/05/23 03:38:46;;;;;;;15.07;8.05;;;;;;;;;;4996521;28;20042;-73
2022/05/23 03:41:12;;;;;;;14.50;8.18;;;;;;;;;;4995875;28;20406;-73
2022/05/23 03:43:39;;;;;;;12.02;8.55;;;;;;;;;;4995961;28;20049;-73
2022/05/23 03:46:06;;;;;;;17.08;8.68;;;;;;;;;;4996184;28;20050;-73
2022/05/23 03:48:32;;;;;;;18.70;8.82;;;;;;;;;;4995864;28;20494;-72
2022/05/23 03:51:00;;;;;;;13.63;8.10;;;;;;;;;;4995864;28;20043;-73
2022/05/23 03:53:26;;;;;;;17.88;8.55;;;;;;;;;;4995494;28;20042;-73
2022/05/23 03:55:52;;;;;;;19.80;8.57;;;;;;;;;;4995842;28;20039;-73
2022/05/23 03:58:18;;;;;;;14.27;8.05;;;;;;;;;;4995407;28;20039;-72
2022/05/23 04:00:49;;;;;;;15.52;8.80;;;;;;;;;;4995824;28;20042;-73
2022/05/23 04:03:15;;;;;;;16.33;8.45;;;;;;;;;;4978127;28;20510;-73
2022/05/23 04:05:42;;;;;;;15.77;8.90;;;;;;;;;;4995727;28;20058;-73
2022/05/23 04:08:09;;;;;;;18.35;8.57;;;;;;;;;;4995592;28;20513;-73
2022/05/23 04:10:35;;;;;;;14.68;8.75;;;;;;;;;;4995407;28;20073;-73
2022/05/23 04:13:02;;;;;;;17.15;9.45;;;;;;;;;;4995816;28;20046;-73
2022/05/23 04:15:31;;;;;;;20.83;9.38;;;;;;;;;;4995156;28;20393;-73
2022/05/23 04:17:57;;;;;;;39.67;18.23;;;;;;;;;;4995260;28;20046;-72
2022/05/23 04:20:23;;;;;;;19.20;9.38;;;;;;;;;;4995558;28;20038;-72
2022/05/23 04:22:49;;;;;;;19.65;11.80;;;;;;;;;;4995484;28;20054;-72
2022/05/23 04:25:16;;;;;;;13.30;8.45;;;;;;;;;;4995890;28;20038;-73
2022/05/23 04:27:42;;;;;;;20.27;8.68;;;;;;;;;;4997124;28;20118;-73
2022/05/23 04:30:09;;;;;;;15.95;9.10;;;;;;;;;;5014685;28;20042;-73
2022/05/23 04:35:20;;;;;;;17.70;8.63;;;;;;;;;;5014300;28;20452;-71
2022/05/23 04:37:50;;;;;;;16.48;8.50;;;;;;;;;;5014851;28;20087;-72
2022/05/23 04:40:24;;;;;;;15.07;8.98;;;;;;;;;;5014872;28;20129;-73
2022/05/23 04:42:50;;;;;;;22.33;9.10;;;;;;;;;;5015171;28;20045;-73
2022/05/23 04:45:16;;;;;;;15.38;8.07;;;;;;;;;;5015065;28;20072;-73
2022/05/23 04:50:28;;;;;;;17.98;9.73;;;;;;;;;;5014122;28;20053;-72
2022/05/23 04:52:56;;;;;;;16.00;8.38;;;;;;;;;;5015222;28;20054;-72
2022/05/23 04:55:22;;;;;;;24.02;9.23;;;;;;;;;;5014770;28;20046;-72
2022/05/23 04:57:48;;;;;;;17.58;9.43;;;;;;;;;;5015214;28;20536;-72
2022/05/23 05:00:18;;;;;;;18.75;9.13;;;;;;;;;;5014861;28;20512;-72
2022/05/23 05:02:44;;;;;;;16.75;8.50;;;;;;;;;;5015141;28;20081;-72
2022/05/23 05:05:11;;;;;;;16.48;8.30;;;;;;;;;;5004396;28;20061;-72
2022/05/23 05:07:38;;;;;;;19.45;8.52;;;;;;;;;;5001681;28;20267;-72
2022/05/23 05:10:04;;;;;;;19.52;8.20;;;;;;;;;;5004409;28;20038;-72
2022/05/23 05:12:31;;;;;;;14.88;8.02;;;;;;;;;;5012247;28;20568;-72
2022/05/23 05:14:57;;;;;;;17.60;8.75;;;;;;;;;;5019127;28;20041;-72
2022/05/23 05:17:24;;;;;;;18.05;8.18;;;;;;;;;;5018411;28;20121;-72
2022/05/23 05:19:50;;;;;;;15.65;7.70;;;;;;;;;;5018260;28;20113;-72
2022/05/23 05:22:16;;;;;;;13.50;7.28;;;;;;;;;;5018052;28;20057;-73
2022/05/23 05:24:42;;;;;;;16.05;7.72;;;;;;;;;;5018246;28;20038;-74
2022/05/23 05:27:09;;;;;;;13.90;7.15;;;;;;;;;;5018344;28;20104;-74
2022/05/23 05:29:36;;;;;;;18.77;8.07;;;;;;;;;;5017951;28;20037;-74
2022/05/23 05:32:02;;;;;;;12.82;7.28;;;;;;;;;;5017837;28;20046;-74
2022/05/23 05:34:51;;;;;;;17.08;8.10;;;;;;;;;;5018172;28;20097;-74
2022/05/23 05:37:24;;;;;;;13.95;7.47;;;;;;;;;;5007618;28;20046;-74
2022/05/23 05:39:53;;;;;;;13.23;7.47;;;;;;;;;;5017913;28;20057;-74
2022/05/23 05:42:21;;;;;;;11.85;7.68;;;;;;;;;;5017726;28;20041;-73
2022/05/23 05:44:53;;;;;;;10.63;6.53;;;;;;;;;;5017956;28;20046;-74
2022/05/23 05:47:20;;;;;;;12.00;6.38;;;;;;;;;;5017646;28;20509;-74
2022/05/23 05:49:50;;;;;;;13.32;6.82;;;;;;;;;;5017740;28;20053;-73
2022/05/23 05:52:19;;;;;;;15.63;6.50;;;;;;;;;;5017490;28;20046;-74
2022/05/23 05:54:45;;;;;;;10.75;6.50;;;;;;;;;;5017526;28;20064;-74
2022/05/23 05:57:12;;;;;;;11.98;6.00;;;;;;;;;;5017659;28;20033;-73
2022/05/23 05:59:39;;;;;;;8.20;6.03;;;;;;;;;;5017441;28;20046;-74
2022/05/23 06:02:07;;;;;;;9.90;5.60;;;;;;;;;;5017701;28;20076;-74
2022/05/23 06:04:34;;;;;;;9.40;5.43;;;;;;;;;;5017572;28;20037;-74
2022/05/23 06:12:30;;;;;;;8.85;5.53;;;;;;;;;;5017106;28;20053;-74
2022/05/23 06:14:57;;;;;;;12.77;5.57;;;;;;;;;;5018059;28;20049;-74
2022/05/23 06:17:24;;;;;;;10.13;4.75;;;;;;;;;;5017112;28;20042;-73
2022/05/23 06:19:50;;;;;;;8.88;4.90;;;;;;;;;;5017142;28;20046;-74
2022/05/23 06:22:17;;;;;;;6.65;4.80;;;;;;;;;;5016627;28;20053;-75
2022/05/23 06:24:49;;;;;;;9.23;4.53;;;;;;;;;;5015949;28;20034;-75
2022/05/23 06:27:15;;;;;;;9.00;4.50;;;;;;;;;;4999599;28;20065;-75
2022/05/23 06:29:41;;;;;;;9.07;4.22;;;;;;;;;;5017131;28;20124;-74
2022/05/23 06:32:08;;;;;;;6.80;3.90;;;;;;;;;;5016980;28;20056;-75
2022/05/23 06:34:34;;;;;;;6.32;3.38;;;;;;;;;;5017118;28;20172;-75
2022/05/23 06:37:00;;;;;;;4.88;3.20;;;;;;;;;;5016804;28;20045;-75
2022/05/23 06:39:27;;;;;;;5.57;3.25;;;;;;;;;;5017500;28;20041;-74
2022/05/23 06:41:53;;;;;;;6.95;3.03;;;;;;;;;;5016965;28;20042;-75
2022/05/23 06:44:19;;;;;;;6.43;3.03;;;;;;;;;;5015152;28;20092;-74
2022/05/23 06:46:46;;;;;;;5.30;2.70;;;;;;;;;;5007578;28;20128;-72
2022/05/23 06:49:13;;;;;;;4.97;2.17;;;;;;;;;;5010198;28;20121;-72
2022/05/23 06:51:40;;;;;;;4.40;2.20;;;;;;;;;;5009771;28;20707;-72
2022/05/23 06:54:06;;;;;;;2.83;2.28;;;;;;;;;;5010228;28;20593;-72
2022/05/23 06:56:32;;;;;;;4.93;2.03;;;;;;;;;;4998460;28;20469;-72
2022/05/23 06:58:59;;;;;;;3.50;2.05;;;;;;;;;;4978808;28;20400;-74
2022/05/23 07:01:26;;;;;;;7.32;2.17;;;;;;;;;;4979001;28;20046;-72
2022/05/23 07:03:52;;;;;;;6.03;2.50;;;;;;;;;;5004695;28;20038;-73
2022/05/23 07:14:33;;;;;;;2.33;1.65;;;;;;;;;;5000405;28;20431;-72
2022/05/23 07:17:00;;;;;;;6.05;1.65;;;;;;;;;;4996362;28;20050;-72
2022/05/23 07:19:26;;;;;;;4.25;1.52;;;;;;;;;;5004172;28;20037;-72
2022/05/23 07:21:54;;;;;;;3.53;1.20;;;;;;;;;;5016268;28;20049;-72
2022/05/23 07:24:21;;;;;;;2.72;1.35;;;;;;;;;;5002419;28;20065;-72
2022/05/23 07:26:47;;;;;;;3.60;1.20;;;;;;;;;;5008151;28;20563;-72
2022/05/23 07:29:13;;;;;;;2.80;1.30;;;;;;;;;;4996694;28;20516;-72
2022/05/23 07:31:39;;;;;;;4.47;1.00;;;;;;;;;;5001053;28;20061;-72
2022/05/23 07:34:06;;;;;;;1.85;0.93;;;;;;;;;;5005362;28;20088;-73
2022/05/23 07:36:32;;;;;;;1.98;0.90;;;;;;;;;;4996345;28;20049;-72
2022/05/23 07:38:58;;;;;;;0.90;0.70;;;;;;;;;;5002552;28;20127;-72
2022/05/23 07:41:24;;;;;;;1.80;1.02;;;;;;;;;;5015140;28;20037;-72
2022/05/23 07:43:51;;;;;;;1.63;1.13;;;;;;;;;;5015999;28;20129;-72
2022/05/23 07:46:17;;;;;;;2.88;0.90;;;;;;;;;;5010451;28;20046;-73
2022/05/23 07:48:45;;;;;;;0.70;0.70;;;;;;;;;;5012075;28;20041;-73
2022/05/23 07:51:13;;;;;;;3.47;1.08;;;;;;;;;;5002031;28;20044;-73
2022/05/23 08:02:01;;;;;;;4.00;0.93;;;;;;;;;;4995649;28;20049;-72
2022/05/23 08:04:28;;;;;;;0.63;0.60;;;;;;;;;;4995808;28;20057;-71
2022/05/23 08:06:54;;;;;;;2.78;0.82;;;;;;;;;;4995182;28;20541;-71
2022/05/23 08:09:23;;;;;;;3.53;0.90;;;;;;;;;;4995614;28;20046;-71
2022/05/23 08:11:51;;;;;;;2.30;0.70;;;;;;;;;;4995450;28;20053;-71
2022/05/23 08:14:17;;;;;;;2.67;0.90;;;;;;;;;;4995663;28;20049;-72
2022/05/23 08:16:43;;;;;;;1.95;0.95;;;;;;;;;;4995783;28;20537;-72
2022/05/23 08:19:12;;;;;;;0.73;0.70;;;;;;;;;;4995660;28;20065;-72
2022/05/23 08:21:45;;;;;;;2.15;0.80;;;;;;;;;;4994885;28;20137;-72
2022/05/23 08:24:11;;;;;;;3.03;0.73;;;;;;;;;;4995587;28;20113;-72
2022/05/23 08:26:37;;;;;;;1.17;0.60;;;;;;;;;;4995385;28;20050;-72
2022/05/23 08:29:03;;;;;;;1.45;0.77;;;;;;;;;;4995199;28;20038;-72
2022/05/23 08:31:29;;;;;;;0.63;0.60;;;;;;;;;;4996445;28;20042;-72
2022/05/23 08:33:56;;;;;;;1.67;0.80;;;;;;;;;;4998194;28;20116;-72
2022/05/23 08:36:22;;;;;;;1.92;0.80;;;;;;;;;;5013922;28;20417;-72
2022/05/23 08:38:48;;;;;;;1.65;0.90;;;;;;;;;;5012784;28;20045;-72
2022/05/23 08:41:14;;;;;;;2.15;0.93;;;;;;;;;;5015102;28;20046;-72
2022/05/23 08:44:06;;;;;;;1.70;0.90;;;;;;;;;;5009202;28;20042;-72
2022/05/23 08:46:42;;;;;;;4.88;0.90;;;;;;;;;;4984135;28;20045;-72
2022/05/23 08:49:16;;;;;;;1.85;0.98;;;;;;;;;;4996486;28;20037;-72
2022/05/23 08:51:54;;;;;;;1.10;0.70;;;;;;;;;;5014403;28;20057;-72
2022/05/23 08:54:26;;;;;;;0.70;0.60;;;;;;;;;;5015364;28;20465;-72
2022/05/23 08:56:57;;;;;;;3.08;1.00;;;;;;;;;;5012868;28;20077;-72
2022/05/23 08:59:25;;;;;;;1.85;0.70;;;;;;;;;;4996735;28;20050;-71
2022/05/23 09:01:57;;;;;;;2.67;1.00;;;;;;;;;;5004673;28;20111;-72
2022/05/23 09:04:26;;;;;;;2.45;0.70;;;;;;;;;;4997861;28;20042;-72
2022/05/23 09:06:52;;;;;;;1.90;0.80;;;;;;;;;;4994710;28;20054;-72
2022/05/23 09:09:19;;;;;;;0.93;0.52;;;;;;;;;;4995208;28;20174;-72
2022/05/23 09:11:47;;;;;;;3.40;0.73;;;;;;;;;;4995241;28;20043;-72
2022/05/23 09:14:14;;;;;;;0.80;0.65;;;;;;;;;;5012901;28;20037;-72
2022/05/23 09:16:42;;;;;;;0.98;0.65;;;;;;;;;;4996897;28;20497;-72
2022/05/23 09:19:08;;;;;;;1.52;0.90;;;;;;;;;;4995146;28;20069;-72
2022/05/23 09:24:19;;;;;;;1.65;0.70;;;;;;;;;;5013551;28;20080;-72
2022/05/23 09:26:46;;;;;;;1.63;0.85;;;;;;;;;;5008570;28;20038;-72
2022/05/23 09:29:12;;;;;;;2.85;1.02;;;;;;;;;;5004815;28;20535;-72
2022/05/23 09:31:45;;;;;;;1.08;0.85;;;;;;;;;;5013480;28;20045;-72
2022/05/23 09:34:28;;;;;;;3.53;1.02;;;;;;;;;;5003379;28;20076;-72
2022/05/23 09:36:54;;;;;;;6.35;1.30;;;;;;;;;;4996403;28;20045;-72
2022/05/23 09:39:24;;;;;;;4.22;1.30;;;;;;;;;;5007218;28;20068;-72
2022/05/23 09:47:45;;;;;;;1.98;1.33;;;;;;;;;;4994156;28;20037;-72
2022/05/23 09:50:12;;;;;;;2.00;1.30;;;;;;;;;;5008719;28;20058;-72
2022/05/23 09:52:51;;;;;;;4.32;1.73;;;;;;;;;;5001750;28;20154;-72
2022/05/23 09:55:28;;;;;;;5.28;1.45;;;;;;;;;;4999041;28;20075;-72
2022/05/23 09:57:55;;;;;;;4.93;1.70;;;;;;;;;;5008142;28;20117;-71
2022/05/23 10:00:22;;;;;;;2.80;1.58;;;;;;;;;;5015036;28;20508;-72
2022/05/23 10:02:52;;;;;;;3.97;1.50;;;;;;;;;;5009548;28;20049;-72
2022/05/23 10:05:50;;;;;;;2.45;1.42;;;;;;;;;;5008326;28;20046;-72
2022/05/23 10:08:39;;;;;;;2.75;1.40;;;;;;;;;;4975290;28;20137;-71
2022/05/23 10:11:24;;;;;;;2.72;1.40;;;;;;;;;;4995586;28;20070;-72
2022/05/23 10:13:54;;;;;;;2.03;1.77;;;;;;;;;;5012295;28;20100;-72
2022/05/23 10:16:21;;;;;;;;;;;;;;;;;;5009021;28;20112;-71
2022/05/23 10:19:00;;;;;;;2.03;1.38;;;;;;;;;;4997368;28;19917;-72
2022/05/23 10:21:31;;;;;;;3.15;1.50;;;;;;;;;;5000093;28;20038;-72
2022/05/23 10:24:00;;;;;;;4.55;1.42;;;;;;;;;;4995810;28;20049;-73
2022/05/23 10:26:26;;;;;;;1.73;1.38;;;;;;;;;;4998770;28;20042;-72
2022/05/23 10:28:53;;;;;;;2.05;1.52;;;;;;;;;;5004217;28;20520;-72
2022/05/23 10:31:26;;;;;;;3.03;1.70;;;;;;;;;;5017134;28;20041;-71
2022/05/23 10:34:19;;;;;;;3.53;1.60;;;;;;;;;;5016683;28;20096;-72
2022/05/23 10:36:47;;;;;;;2.17;1.00;;;;;;;;;;5013410;28;20057;-72
2022/05/23 10:42:10;;;;;;;2.03;1.13;;;;;;;;;;5016788;28;20049;-72
2022/05/23 10:44:55;;;;;;;1.10;1.00;;;;;;;;;;5015505;28;20049;-72
2022/05/23 10:47:34;;;;;;;1.27;1.15;;;;;;;;;;5017721;28;20092;-72
2022/05/23 10:50:06;;;;;;;4.15;1.00;;;;;;;;;;5011774;28;20033;-75
2022/05/23 10:52:37;;;;;;;4.63;1.30;;;;;;;;;;4997013;28;20050;-74
2022/05/23 10:55:08;;;;;;;3.13;1.10;;;;;;;;;;5000065;28;20133;-74
2022/05/23 10:57:34;;;;;;;1.25;0.93;;;;;;;;;;5004435;28;20097;-74
2022/05/23 11:00:08;;;;;;;2.70;1.20;;;;;;;;;;4996720;28;20459;-74
2022/05/23 11:02:45;;;;;;;1.40;0.93;;;;;;;;;;4997591;28;20077;-74
2022/05/23 11:05:37;;;;;;;2.33;1.40;;;;;;;;;;5012850;28;20104;-75
2022/05/23 11:08:09;;;;;;;2.10;1.00;;;;;;;;;;4974693;28;20128;-75
2022/05/23 11:10:53;;;;;;;2.58;1.13;;;;;;;;;;4970212;28;20073;-74
2022/05/23 11:13:19;;;;;;;3.85;1.30;;;;;;;;;;4965845;28;20398;-73
2022/05/23 11:15:57;;;;;;;1.15;1.00;;;;;;;;;;4976569;28;20403;-74
2022/05/23 11:18:32;;;;;;;1.63;1.10;;;;;;;;;;4959143;28;20082;-74
2022/05/23 11:21:01;;;;;;;1.13;1.02;;;;;;;;;;4959048;28;20051;-74
2022/05/23 11:23:30;;;;;;;3.08;1.20;;;;;;;;;;4958088;28;20046;-74
2022/05/23 11:26:17;;;;;;;1.27;1.17;;;;;;;;;;4957960;28;20106;-74
2022/05/23 11:34:24;;;;;;;3.08;1.30;;;;;;;;;;4976763;28;20142;-74
2022/05/23 11:37:08;;;;;;;1.95;1.38;;;;;;;;;;4950546;28;20047;-74
2022/05/23 11:39:45;;;;;;;1.33;1.10;;;;;;;;;;4964675;28;20071;-74
2022/05/23 11:42:16;;;;;;;2.65;1.40;;;;;;;;;;4975722;28;20297;-74
2022/05/23 11:44:42;;;;;;;2.42;1.60;;;;;;;;;;4976448;28;20498;-74
2022/05/23 11:47:11;;;;;;;3.13;1.88;;;;;;;;;;4974572;28;20047;-74
2022/05/23 11:49:45;;;;;;;3.83;2.08;;;;;;;;;;4975618;28;20042;-74
2022/05/23 11:52:23;;;;;;;3.63;1.85;;;;;;;;;;4976020;28;20059;-74
2022/05/23 11:54:49;;;;;;;3.38;1.90;;;;;;;;;;4976391;28;20047;-74
2022/05/23 11:57:18;;;;;;;3.20;1.73;;;;;;;;;;4975565;28;20050;-73
2022/05/23 11:59:45;;;;;;;3.00;2.20;;;;;;;;;;4975792;28;20561;-74
2022/05/23 12:02:11;;;;;;;3.80;1.90;;;;;;;;;;4972947;28;20042;-75
2022/05/23 12:04:49;;;;;;;4.10;2.03;;;;;;;;;;4955683;28;20067;-75
2022/05/23 12:07:34;;;;;;;3.28;2.03;;;;;;;;;;4987369;28;20046;-74
2022/05/23 12:10:36;;;;;;;2.30;2.08;;;;;;;;;;4994576;28;20038;-74
2022/05/23 12:13:14;;;;;;;2.38;2.03;;;;;;;;;;4936405;29;20059;-74
2022/05/23 12:15:43;;;;;;;3.17;2.28;;;;;;;;;;5005063;28;20045;-73
2022/05/23 12:18:10;;;;;;;6.18;2.33;;;;;;;;;;5014611;28;20037;-73
2022/05/23 12:20:47;;;;;;;4.35;1.75;;;;;;;;;;5013345;28;20038;-74
2022/05/23 12:23:31;;;;;;;5.65;2.17;;;;;;;;;;5014047;28;20042;-74
2022/05/23 12:26:12;;;;;;;4.97;2.20;;;;;;;;;;5014504;28;20046;-73
2022/05/23 12:28:43;;;;;;;2.95;2.10;;;;;;;;;;5008082;28;20042;-73
2022/05/23 12:31:15;;;;;;;5.93;1.92;;;;;;;;;;5014287;28;20139;-74
2022/05/23 12:33:48;;;;;;;4.10;1.95;;;;;;;;;;5008080;28;20042;-74
2022/05/23 12:36:18;;;;;;;5.20;2.33;;;;;;;;;;4993710;28;20045;-74
2022/05/23 12:38:53;;;;;;;2.83;2.00;;;;;;;;;;4994704;28;20049;-74
2022/05/23 12:41:39;;;;;;;3.42;2.05;;;;;;;;;;4994665;28;20046;-74
2022/05/23 12:44:23;;;;;;;4.32;2.00;;;;;;;;;;4995054;28;20038;-74
2022/05/23 12:47:06;;;;;;;3.65;1.80;;;;;;;;;;4994799;28;20041;-74
2022/05/23 12:49:49;;;;;;;2.28;1.67;;;;;;;;;;4993610;28;20082;-74
2022/05/23 12:52:35;;;;;;;4.40;1.70;;;;;;;;;;4994978;28;20054;-74
2022/05/23 12:55:11;;;;;;;3.83;1.48;;;;;;;;;;5011268;28;20082;-74
2022/05/23 12:58:13;;;;;;;3.50;1.60;;;;;;;;;;5014249;28;20054;-74
2022/05/23 13:00:43;;;;;;;2.88;1.45;;;;;;;;;;4934225;29;20042;-73
2022/05/23 13:03:27;;;;;;;2.28;1.30;;;;;;;;;;4999401;28;20081;-74
2022/05/23 13:05:54;;;;;;;1.55;1.20;;;;;;;;;;5012514;28;20053;-73
2022/05/23 13:08:26;;;;;;;2.55;1.30;;;;;;;;;;5013169;28;20061;-73
2022/05/23 13:10:57;;;;;;;3.40;1.58;;;;;;;;;;5013445;28;20131;-74
2022/05/23 13:13:44;;;;;;;5.30;1.23;;;;;;;;;;5013825;28;20050;-73
2022/05/23 13:16:15;;;;;;;4.10;1.33;;;;;;;;;;4980538;28;20121;-73
2022/05/23 13:24:48;;;;;;;1.75;1.10;;;;;;;;;;5008378;28;20073;-73
2022/05/23 13:27:02;;;;;;;4.60;1.33;;;;;;;;;;5012074;28;20046;-73
2022/05/23 13:29:28;;;;;;;3.25;1.45;;;;;;;;;;5013496;28;20505;-73
2022/05/23 13:31:58;;;;;;;1.48;1.00;;;;;;;;;;5016135;28;20489;-73
2022/05/23 13:34:24;;;;;;;1.65;1.27;;;;;;;;;;5015712;28;20362;-74
2022/05/23 13:36:51;;;;;;;2.75;0.98;;;;;;;;;;5017925;28;20056;-73
2022/05/23 13:39:18;;;;;;;2.47;1.00;;;;;;;;;;5017010;28;20042;-74
2022/05/23 13:41:44;;;;;;;1.40;1.00;;;;;;;;;;5017351;28;20046;-74
2022/05/23 13:44:40;;;;;;;1.13;0.98;;;;;;;;;;5017511;28;20038;-74
2022/05/23 13:47:12;;;;;;;2.35;0.90;;;;;;;;;;5000735;28;20050;-74
2022/05/23 13:49:44;;;;;;;1.92;1.20;;;;;;;;;;5017829;28;20489;-74
2022/05/23 13:52:12;;;;;;;2.17;1.10;;;;;;;;;;5017844;28;20129;-74
2022/05/23 13:54:47;;;;;;;1.30;1.17;;;;;;;;;;5017919;28;20045;-74
2022/05/23 13:57:27;;;;;;;2.45;1.27;;;;;;;;;;5017500;28;20048;-74
2022/05/23 13:59:56;;;;;;;3.15;1.30;;;;;;;;;;5017776;28;20045;-74
2022/05/23 14:02:25;;;;;;;2.50;1.50;;;;;;;;;;5017688;28;20100;-74
2022/05/23 14:04:53;;;;;;;1.38;1.27;;;;;;;;;;5018077;28;20041;-74
2022/05/23 14:07:21;;;;;;;4.75;1.77;;;;;;;;;;5017431;28;20500;-74
2022/05/23 14:09:52;;;;;;;2.17;1.30;;;;;;;;;;5017559;28;20038;-74
2022/05/23 14:12:21;;;;;;;2.42;1.52;;;;;;;;;;5017264;28;20057;-74
2022/05/23 14:14:58;;;;;;;2.13;1.40;;;;;;;;;;5017221;28;20599;-74
2022/05/23 14:17:29;;;;;;;1.23;1.13;;;;;;;;;;5017211;28;20153;-74
2022/05/23 14:19:57;;;;;;;3.35;1.45;;;;;;;;;;5017763;28;20473;-74
2022/05/23 14:22:23;;;;;;;1.48;1.30;;;;;;;;;;5017387;28;20057;-74
2022/05/23 14:24:51;;;;;;;3.33;1.30;;;;;;;;;;5017043;28;20041;-74
2022/05/23 14:27:24;;;;;;;3.88;1.67;;;;;;;;;;5017262;28;20041;-74
2022/05/23 14:30:10;;;;;;;2.75;1.55;;;;;;;;;;5016669;28;20033;-74
2022/05/23 14:32:36;;;;;;;5.25;1.30;;;;;;;;;;5017574;28;20054;-74
2022/05/23 14:35:12;;;;;;;1.25;0.98;;;;;;;;;;5017520;28;20046;-74
2022/05/23 14:37:40;;;;;;;2.30;1.30;;;;;;;;;;5016833;28;20046;-74
2022/05/23 14:40:07;;;;;;;2.28;1.50;;;;;;;;;;5017293;28;20034;-74
2022/05/23 14:42:37;;;;;;;3.53;1.58;;;;;;;;;;5016758;28;20501;-73
2022/05/23 14:45:05;;;;;;;4.53;1.73;;;;;;;;;;5017252;28;20046;-76
2022/05/23 14:47:32;;;;;;;2.90;1.70;;;;;;;;;;5016623;28;20046;-75
2022/05/23 14:50:04;;;;;;;5.38;1.80;;;;;;;;;;5016974;28;20042;-75
2022/05/23 14:55:43;;;;;;;3.05;1.60;;;;;;;;;;5016251;28;20045;-75
2022/05/23 15:00:59;;;;;;;3.15;1.55;;;;;;;;;;5007607;28;20119;-75
2022/05/23 15:03:28;;;;;;;3.95;1.55;;;;;;;;;;5016272;28;20053;-73
2022/05/23 15:05:55;;;;;;;3.15;1.80;;;;;;;;;;5016022;28;20054;-74
2022/05/23 15:08:22;;;;;;;2.63;1.63;;;;;;;;;;5016446;28;20107;-73
2022/05/23 15:10:49;;;;;;;6.15;1.85;;;;;;;;;;5016112;28;20210;-74
2022/05/23 15:13:15;;;;;;;3.92;1.67;;;;;;;;;;5011409;28;20042;-75
2022/05/23 15:15:41;;;;;;;3.22;1.63;;;;;;;;;;4998303;28;20401;-75
2022/05/23 15:18:09;;;;;;;1.98;1.42;;;;;;;;;;5014552;28;20065;-75
2022/05/23 15:20:38;;;;;;;6.32;2.35;;;;;;;;;;5008150;28;20050;-74
2022/05/23 15:23:06;;;;;;;4.40;1.90;;;;;;;;;;4996625;28;20100;-75
2022/05/23 15:25:33;;;;;;;5.13;1.58;;;;;;;;;;4996663;28;20046;-75
2022/05/23 15:27:59;;;;;;;4.28;1.77;;;;;;;;;;4997064;28;20088;-74
2022/05/23 15:30:29;;;;;;;3.63;2.13;;;;;;;;;;4996436;28;20046;-74
2022/05/23 15:32:56;;;;;;;3.50;1.85;;;;;;;;;;4995917;28;20050;-75
2022/05/23 15:35:23;;;;;;;7.05;2.53;;;;;;;;;;4995835;28;20046;-74
2022/05/23 15:37:49;;;;;;;4.95;2.13;;;;;;;;;;4995590;28;20493;-74
2022/05/23 15:40:16;;;;;;;3.58;2.20;;;;;;;;;;4995676;28;20046;-74
2022/05/23 15:42:43;;;;;;;4.55;2.53;;;;;;;;;;4996809;28;20070;-74
2022/05/23 15:45:14;;;;;;;3.88;1.95;;;;;;;;;;4996378;28;20125;-73
2022/05/23 15:47:41;;;;;;;4.47;2.00;;;;;;;;;;4996843;28;20166;-74
2022/05/23 15:50:08;;;;;;;6.15;2.03;;;;;;;;;;4995082;28;20489;-73
2022/05/23 15:52:35;;;;;;;5.25;2.15;;;;;;;;;;4994352;28;20042;-73
2022/05/23 15:55:01;;;;;;;6.00;2.30;;;;;;;;;;4994252;28;20047;-73
2022/05/23 15:57:34;;;;;;;4.85;2.05;;;;;;;;;;4995577;28;20045;-74